createdAt,value
2022-10-29T00:12:06.241Z,1026.81
2022-10-29T00:26:06.209Z,1026.83
2022-10-29T00:40:06.213Z,1026.73
2022-10-29T00:54:06.261Z,1026.67
2022-10-29T01:08:06.274Z,1026.58
2022-10-29T01:22:06.267Z,1026.52
2022-10-29T01:36:06.286Z,1026.3200000000002
2022-10-29T01:50:06.297Z,1026.0900000000001
2022-10-29T02:04:06.294Z,1026.05
2022-10-29T02:18:06.337Z,1026.05
2022-10-29T02:32:06.275Z,1026.0700000000002
2022-10-29T02:46:06.351Z,1025.88
2022-10-29T03:00:06.365Z,1025.79
2022-10-29T03:14:06.395Z,1025.79
2022-10-29T03:28:06.383Z,1025.78
2022-10-29T03:42:06.381Z,1025.6799999999998
2022-10-29T03:56:06.437Z,1025.74
2022-10-29T04:10:06.472Z,1025.73
2022-10-29T04:38:06.514Z,1025.73
2022-10-29T04:52:06.497Z,1025.74
2022-10-29T05:06:27.599Z,1025.8
2022-10-29T05:20:06.570Z,1025.87
2022-10-29T05:34:06.530Z,1025.78
2022-10-29T05:49:06.572Z,1025.81
2022-10-29T06:05:06.632Z,1025.95
2022-10-29T06:20:06.634Z,1025.94
2022-10-29T06:35:06.631Z,1025.94
2022-10-29T06:50:06.630Z,1025.95
2022-10-29T07:05:06.637Z,1026.12
2022-10-29T07:20:06.642Z,1026.21
2022-10-29T07:35:06.631Z,1026.28
2022-10-29T07:50:06.776Z,1026.24
2022-10-29T08:05:06.805Z,1026.3400000000001
2022-10-29T08:20:06.808Z,1026.4099999999999
2022-10-29T08:35:06.799Z,1026.3
2022-10-29T08:50:06.800Z,1026.23
2022-10-29T09:05:06.814Z,1026.28
2022-10-29T09:20:06.863Z,1026.3200000000002
2022-10-29T09:35:06.852Z,1026.1599999999999
2022-10-29T09:50:08.293Z,1026.17
2022-10-29T10:05:06.912Z,1026.08
2022-10-29T10:20:06.907Z,1026
2022-10-29T10:35:06.912Z,1025.9299999999998
2022-10-29T10:50:06.931Z,1025.6
2022-10-29T11:05:07.856Z,1025.46
2022-10-29T11:21:06.988Z,1025.26
2022-10-29T11:36:06.996Z,1025.22
2022-10-29T11:51:07.057Z,1024.9299999999998
2022-10-29T12:06:07.024Z,1024.83
2022-10-29T12:21:07.022Z,1024.78
2022-10-29T12:36:07.050Z,1024.5700000000002
2022-10-29T12:51:07.066Z,1024.4099999999999
2022-10-29T13:06:07.104Z,1024.45
2022-10-29T13:21:07.146Z,1024.38
2022-10-29T13:37:07.109Z,1024.28
2022-10-29T13:52:07.120Z,1024.2
2022-10-29T14:07:07.189Z,1024.19
2022-10-29T14:22:07.234Z,1024.13
2022-10-29T14:37:07.258Z,1024.02
2022-10-29T14:52:07.251Z,1024.12
2022-10-29T15:07:08.249Z,1024.05
2022-10-29T15:22:08.339Z,1024.01
2022-10-29T15:37:08.449Z,1024.15
2022-10-29T15:52:08.335Z,1024.08
2022-10-29T16:07:08.324Z,1024.08
2022-10-29T16:22:08.331Z,1024.12
2022-10-29T16:37:08.458Z,1024.19
2022-10-29T16:51:08.473Z,1024.27
2022-10-29T17:05:08.476Z,1024.26
2022-10-29T17:19:08.450Z,1024.33
2022-10-29T17:33:08.477Z,1024.33
2022-10-29T17:47:08.454Z,1024.42
2022-10-29T18:01:08.524Z,1024.5
2022-10-29T18:15:08.473Z,1024.53
2022-10-29T18:29:08.512Z,1024.49
2022-10-29T18:43:08.499Z,1024.4099999999999
2022-10-29T18:57:08.503Z,1024.35
2022-10-29T19:11:08.510Z,1024.31
2022-10-29T19:25:08.508Z,1024.35
2022-10-29T19:39:08.520Z,1024.31
2022-10-29T19:53:08.612Z,1024.4
2022-10-29T20:07:08.610Z,1024.3600000000001
2022-10-29T20:21:08.627Z,1024.3
2022-10-29T20:35:08.626Z,1024.28
2022-10-29T20:49:08.622Z,1024.3400000000001
2022-10-29T21:03:08.779Z,1024.27
2022-10-29T21:17:08.766Z,1024.27
2022-10-29T21:31:08.767Z,1024.22
2022-10-29T21:45:08.764Z,1024.1399999999999
2022-10-29T21:59:08.847Z,1024.06
2022-10-29T22:13:10.365Z,1024.12
2022-10-29T22:27:08.802Z,1024.03
2022-10-29T22:41:08.806Z,1023.92
2022-10-29T22:55:08.807Z,1023.84
2022-10-29T23:09:11.074Z,1023.81
2022-10-29T23:23:11.071Z,1023.7
2022-10-29T23:37:11.119Z,1023.6
2022-10-29T23:51:11.080Z,1023.46
